createdAt,value
2023-01-09T00:00:33.577Z,16.42
2023-01-09T00:03:35.252Z,16.25
2023-01-09T00:06:37.501Z,18.23
2023-01-09T00:09:39.326Z,18.00
2023-01-09T00:12:41.601Z,19.00
2023-01-09T00:15:43.495Z,16.50
2023-01-09T00:18:45.395Z,17.17
2023-01-09T00:21:47.222Z,17.13
2023-01-09T00:24:48.853Z,18.25
2023-01-09T00:27:50.597Z,16.67
2023-01-09T00:31:00.021Z,15.68
2023-01-09T00:34:06.155Z,15.57
2023-01-09T00:37:11.886Z,18.35
2023-01-09T00:40:15.401Z,16.30
2023-01-09T00:43:18.577Z,14.30
2023-01-09T00:46:25.511Z,16.70
2023-01-09T00:49:35.842Z,15.70
2023-01-09T00:52:38.812Z,18.45
2023-01-09T00:55:40.847Z,16.38
2023-01-09T00:58:43.285Z,14.73
2023-01-09T01:01:45.186Z,16.85
2023-01-09T01:05:05.297Z,15.48
2023-01-09T01:08:11.459Z,15.43
2023-01-09T01:11:13.604Z,13.27
2023-01-09T01:14:15.271Z,13.60
2023-01-09T01:17:17.001Z,14.50
2023-01-09T01:20:19.303Z,13.80
2023-01-09T01:23:20.960Z,10.85
2023-01-09T01:26:22.618Z,11.30
2023-01-09T01:29:24.341Z,13.53
2023-01-09T01:32:26.023Z,16.50
2023-01-09T01:35:27.822Z,15.68
2023-01-09T01:38:29.905Z,13.88
2023-01-09T01:41:32.505Z,16.17
2023-01-09T01:44:55.811Z,14.63
2023-01-09T01:48:00.192Z,15.35
2023-01-09T01:51:05.993Z,13.80
2023-01-09T01:54:14.502Z,11.73
2023-01-09T01:57:16.489Z,14.38
2023-01-09T02:00:23.190Z,11.53
2023-01-09T02:03:27.361Z,14.77
2023-01-09T02:06:30.476Z,14.32
2023-01-09T02:09:32.345Z,14.32
2023-01-09T02:12:34.115Z,14.02
2023-01-09T02:15:46.253Z,11.87
2023-01-09T02:19:20.363Z,14.07
2023-01-09T02:22:30.916Z,15.80
2023-01-09T02:26:10.237Z,13.60
2023-01-09T02:29:36.142Z,10.38
2023-01-09T02:33:06.159Z,13.40
2023-01-09T02:36:19.023Z,15.77
2023-01-09T02:39:51.114Z,13.50
2023-01-09T02:42:57.350Z,14.95
2023-01-09T02:45:59.295Z,13.90
2023-01-09T02:49:01.179Z,14.47
2023-01-09T02:52:11.765Z,13.50
2023-01-09T02:55:35.274Z,17.77
2023-01-09T02:58:55.498Z,13.20
2023-01-09T03:01:59.963Z,14.93
2023-01-09T03:05:11.403Z,13.70
2023-01-09T03:08:21.050Z,14.20
2023-01-09T03:11:28.336Z,15.07
2023-01-09T03:14:33.492Z,14.60
2023-01-09T03:17:40.257Z,12.93
2023-01-09T03:20:42.905Z,10.43
2023-01-09T03:23:49.547Z,14.55
2023-01-09T03:26:51.493Z,13.95
2023-01-09T03:29:53.453Z,13.55
2023-01-09T03:32:56.190Z,14.13
2023-01-09T03:35:57.941Z,14.20
2023-01-09T03:38:59.637Z,13.40
2023-01-09T03:42:01.435Z,14.65
2023-01-09T03:45:03.890Z,13.88
2023-01-09T03:48:05.786Z,13.93
2023-01-09T03:51:07.446Z,18.13
2023-01-09T03:54:09.551Z,14.98
2023-01-09T03:57:11.233Z,13.38
2023-01-09T04:00:13.524Z,13.35
2023-01-09T04:03:16.224Z,15.77
2023-01-09T04:06:18.084Z,15.33
2023-01-09T04:09:20.057Z,13.40
2023-01-09T04:12:21.735Z,14.80
2023-01-09T04:15:23.878Z,13.38
2023-01-09T04:18:25.629Z,14.38
2023-01-09T04:21:27.623Z,14.63
2023-01-09T04:24:29.347Z,14.88
2023-01-09T04:27:31.240Z,15.32
2023-01-09T04:30:33.433Z,14.05
2023-01-09T04:33:35.137Z,15.57
2023-01-09T04:36:36.848Z,15.00
2023-01-09T04:39:38.532Z,13.57
2023-01-09T04:42:41.201Z,16.85
2023-01-09T04:45:42.900Z,15.32
2023-01-09T04:48:44.776Z,14.07
2023-01-09T04:51:47.197Z,16.03
2023-01-09T04:54:48.931Z,14.52
2023-01-09T04:57:50.677Z,13.82
2023-01-09T05:00:52.617Z,16.50
2023-01-09T05:03:54.336Z,16.50
2023-01-09T05:06:56.099Z,12.77
2023-01-09T05:09:57.761Z,17.02
2023-01-09T05:12:59.455Z,14.73
2023-01-09T05:16:01.110Z,14.75
2023-01-09T05:19:03.139Z,18.58
2023-01-09T05:22:05.117Z,14.83
2023-01-09T05:25:07.122Z,15.70
2023-01-09T05:28:08.919Z,18.50
2023-01-09T05:31:10.784Z,16.48
2023-01-09T05:34:12.480Z,16.33
2023-01-09T05:37:14.159Z,19.60
2023-01-09T05:40:16.074Z,16.30
2023-01-09T05:43:17.727Z,16.58
2023-01-09T05:46:19.450Z,16.33
2023-01-09T05:49:21.157Z,17.23
2023-01-09T05:52:24.802Z,16.40
2023-01-09T05:59:29.425Z,16.40
2023-01-09T06:02:31.435Z,15.77
2023-01-09T06:05:33.876Z,18.30
2023-01-09T06:08:35.711Z,21.80
2023-01-09T06:11:44.250Z,22.10
2023-01-09T06:14:47.420Z,20.05
2023-01-09T06:17:49.358Z,23.52
2023-01-09T06:20:56.447Z,22.40
2023-01-09T06:23:59.378Z,19.53
2023-01-09T06:27:01.034Z,20.83
2023-01-09T06:30:02.982Z,23.25
2023-01-09T06:33:05.782Z,21.23
2023-01-09T06:36:07.999Z,19.75
2023-01-09T06:39:09.735Z,19.50
2023-01-09T06:42:11.430Z,16.77
2023-01-09T06:45:13.842Z,16.85
2023-01-09T06:48:15.701Z,19.40
2023-01-09T06:51:17.382Z,19.40
2023-01-09T06:54:19.771Z,20.47
2023-01-09T06:57:21.527Z,17.85
2023-01-09T07:00:23.470Z,19.50
2023-01-09T07:03:25.330Z,17.90
2023-01-09T07:06:27.484Z,14.40
2023-01-09T07:09:29.291Z,18.67
2023-01-09T07:12:31.033Z,18.35
2023-01-09T07:15:33.595Z,17.42
2023-01-09T07:18:35.574Z,19.60
2023-01-09T07:21:38.025Z,19.15
2023-01-09T07:24:39.823Z,17.67
2023-01-09T07:27:42.326Z,18.90
2023-01-09T07:30:44.077Z,25.90
2023-01-09T07:33:45.777Z,20.98
2023-01-09T07:36:48.957Z,23.83
2023-01-09T07:39:51.736Z,16.90
2023-01-09T07:42:54.006Z,18.73
2023-01-09T07:45:55.743Z,17.70
2023-01-09T07:48:57.650Z,18.40
2023-01-09T07:51:59.336Z,18.63
2023-01-09T07:55:01.541Z,24.53
2023-01-09T07:58:03.281Z,19.80
2023-01-09T08:01:05.128Z,19.45
2023-01-09T08:04:07.109Z,24.75
2023-01-09T08:07:08.983Z,20.30
2023-01-09T08:10:11.533Z,20.97
2023-01-09T08:13:13.208Z,18.98
2023-01-09T08:16:15.193Z,17.33
2023-01-09T08:19:16.866Z,23.58
2023-01-09T08:22:19.157Z,17.33
2023-01-09T08:25:21.420Z,20.43
2023-01-09T08:28:23.190Z,18.92
2023-01-09T08:31:25.178Z,18.40
2023-01-09T08:34:27.005Z,22.17
2023-01-09T08:37:28.779Z,19.67
2023-01-09T08:40:30.628Z,18.43
2023-01-09T08:43:50.771Z,17.55
2023-01-09T08:47:08.529Z,18.35
2023-01-09T08:50:10.538Z,20.48
2023-01-09T08:53:12.816Z,19.00
2023-01-09T08:56:14.446Z,17.73
2023-01-09T08:59:16.672Z,18.73
2023-01-09T09:02:18.445Z,19.10
2023-01-09T09:05:20.827Z,19.23
2023-01-09T09:08:22.524Z,17.17
2023-01-09T09:11:24.195Z,20.63
2023-01-09T09:14:45.128Z,19.85
2023-01-09T09:18:00.587Z,15.35
2023-01-09T09:21:02.365Z,17.52
2023-01-09T09:24:04.160Z,17.23
2023-01-09T09:27:05.820Z,19.20
2023-01-09T09:30:09.014Z,17.88
2023-01-09T09:33:10.797Z,19.00
2023-01-09T09:36:12.447Z,22.50
2023-01-09T09:39:15.155Z,18.48
2023-01-09T09:43:11.043Z,18.87
2023-01-09T09:46:23.226Z,18.50
2023-01-09T09:49:33.828Z,21.50
2023-01-09T09:53:09.433Z,13.90
2023-01-09T09:56:13.923Z,21.08
2023-01-09T09:59:27.161Z,22.47
2023-01-09T10:02:39.542Z,18.33
2023-01-09T10:05:45.586Z,19.52
2023-01-09T10:09:09.089Z,20.80
2023-01-09T10:12:25.260Z,20.85
2023-01-09T10:15:55.745Z,21.97
2023-01-09T10:19:06.398Z,21.05
2023-01-09T10:22:37.218Z,20.90
2023-01-09T10:25:51.017Z,23.08
2023-01-09T10:29:11.432Z,20.17
2023-01-09T10:32:37.880Z,17.17
2023-01-09T10:35:58.554Z,19.60
2023-01-09T10:39:08.406Z,19.83
2023-01-09T10:42:11.289Z,20.38
2023-01-09T10:45:34.910Z,17.15
2023-01-09T10:48:45.508Z,21.77
2023-01-09T10:51:50.414Z,18.52
2023-01-09T10:54:58.144Z,19.38
2023-01-09T10:58:04.356Z,20.67
2023-01-09T11:01:07.814Z,21.77
2023-01-09T11:04:23.500Z,17.90
2023-01-09T11:07:30.354Z,20.58
2023-01-09T11:10:49.586Z,18.77
2023-01-09T11:14:04.678Z,17.48
2023-01-09T11:17:16.822Z,20.65
2023-01-09T11:20:28.152Z,20.43
2023-01-09T11:23:32.581Z,20.00
2023-01-09T11:26:35.150Z,21.50
2023-01-09T11:29:36.839Z,18.40
2023-01-09T11:32:38.593Z,21.52
2023-01-09T11:35:54.391Z,24.97
2023-01-09T11:38:58.669Z,20.58
2023-01-09T11:42:03.334Z,22.67
2023-01-09T11:45:05.516Z,24.08
2023-01-09T11:48:17.883Z,18.63
2023-01-09T11:51:23.238Z,19.60
2023-01-09T11:54:28.723Z,20.13
2023-01-09T11:57:31.374Z,48.90
2023-01-09T12:00:44.295Z,29.55
